Time;durP1;ratioP1;P1;durP2;ratioP2;P2;SDS_P1;SDS_P2;PMS_P1;PMS_P2;Temp;Humidity;BMP_temperature;BMP_pressure;BME280_temperature;BME280_humidity;BME280_pressure;Samples;Min_cycle;Max_cycle;Signal;HPM_P1;HPM_P2
2021/11/13 00:01:24;;;;;;;51.42;18.60;;;;;;;;;;6280363;22;20008;-91
2021/11/13 00:03:51;;;;;;;41.50;17.33;;;;;;;;;;6280757;22;20002;-90
2021/11/13 00:06:17;;;;;;;48.38;17.95;;;;;;;;;;6253118;22;20031;-92
2021/11/13 00:08:43;;;;;;;50.63;19.85;;;;;;;;;;6253366;22;20006;-92
2021/11/13 00:11:11;;;;;;;46.63;19.08;;;;;;;;;;6253380;22;20391;-90
2021/11/13 00:13:38;;;;;;;46.67;21.85;;;;;;;;;;6253150;22;20011;-91
2021/11/13 00:16:05;;;;;;;40.25;17.58;;;;;;;;;;6253084;22;20000;-94
2021/11/13 00:18:35;;;;;;;45.83;19.85;;;;;;;;;;6253056;22;20007;-94
2021/11/13 00:21:03;;;;;;;44.13;19.92;;;;;;;;;;6253424;22;20000;-94
2021/11/13 00:23:29;;;;;;;52.88;21.02;;;;;;;;;;6253327;22;20082;-94
2021/11/13 00:25:57;;;;;;;55.20;19.80;;;;;;;;;;6253118;22;20003;-93
2021/11/13 00:28:23;;;;;;;53.95;19.17;;;;;;;;;;6252842;22;20015;-92
2021/11/13 00:30:50;;;;;;;50.65;18.70;;;;;;;;;;6253226;22;20042;-93
2021/11/13 00:33:16;;;;;;;39.63;17.27;;;;;;;;;;6252910;22;20011;-92
2021/11/13 00:35:42;;;;;;;43.53;17.42;;;;;;;;;;6252819;22;20004;-93
2021/11/13 00:38:09;;;;;;;44.42;16.38;;;;;;;;;;6252548;22;20026;-93
2021/11/13 00:40:36;;;;;;;43.83;16.88;;;;;;;;;;6252693;22;20000;-93
2021/11/13 00:43:02;;;;;;;39.22;17.80;;;;;;;;;;6253088;22;20027;-91
2021/11/13 00:45:29;;;;;;;38.38;16.02;;;;;;;;;;6253234;22;20087;-93
2021/11/13 00:47:56;;;;;;;34.88;15.20;;;;;;;;;;6252397;22;20004;-91
2021/11/13 00:50:22;;;;;;;46.88;18.35;;;;;;;;;;6252290;22;20007;-88
2021/11/13 00:52:49;;;;;;;44.97;17.55;;;;;;;;;;6252896;22;20015;-93
2021/11/13 00:55:16;;;;;;;40.58;18.20;;;;;;;;;;6228507;22;20026;-91
2021/11/13 00:57:43;;;;;;;38.15;16.05;;;;;;;;;;6253941;22;20011;-91
2021/11/13 01:00:10;;;;;;;40.47;17.23;;;;;;;;;;6253881;22;19999;-92
2021/11/13 01:02:37;;;;;;;44.42;17.83;;;;;;;;;;6257476;22;20463;-92
2021/11/13 01:05:03;;;;;;;42.22;16.95;;;;;;;;;;6270837;22;20030;-94
2021/11/13 01:07:31;;;;;;;58.15;18.00;;;;;;;;;;6267346;22;20008;-91
2021/11/13 01:09:57;;;;;;;54.92;20.08;;;;;;;;;;6291388;22;20317;-92
2021/11/13 01:12:24;;;;;;;78.93;20.15;;;;;;;;;;6260269;22;20015;-85
2021/11/13 01:14:51;;;;;;;62.08;20.35;;;;;;;;;;6256724;22;20003;-93
2021/11/13 01:17:18;;;;;;;59.95;19.77;;;;;;;;;;6281593;22;20475;-92
2021/11/13 01:19:46;;;;;;;76.70;21.73;;;;;;;;;;6254494;22;20034;-93
2021/11/13 01:22:12;;;;;;;90.22;23.88;;;;;;;;;;6253986;22;20014;-90
2021/11/13 01:24:39;;;;;;;89.90;25.23;;;;;;;;;;6253740;22;20551;-92
2021/11/13 01:27:05;;;;;;;125.15;32.30;;;;;;;;;;6254364;22;20003;-90
2021/11/13 01:29:32;;;;;;;153.70;30.23;;;;;;;;;;6254729;22;20000;-93
2021/11/13 01:31:58;;;;;;;106.78;28.05;;;;;;;;;;6255562;22;20332;-93
2021/11/13 01:34:25;;;;;;;92.85;28.33;;;;;;;;;;6254478;22;20440;-94
2021/11/13 01:36:53;;;;;;;95.25;27.88;;;;;;;;;;6282406;22;20004;-94
2021/11/13 01:39:20;;;;;;;110.47;25.95;;;;;;;;;;6256748;22;20011;-94
2021/11/13 01:41:49;;;;;;;107.85;25.25;;;;;;;;;;6259205;22;20078;-93
2021/11/13 01:44:34;;;;;;;73.93;19.98;;;;;;;;;;6284809;22;20007;-88
2021/11/13 01:47:00;;;;;;;108.85;22.48;;;;;;;;;;6230663;22;20012;-91
2021/11/13 01:49:26;;;;;;;86.55;21.77;;;;;;;;;;6256290;22;20067;-93
2021/11/13 01:51:52;;;;;;;115.57;21.58;;;;;;;;;;6260654;22;20011;-90
2021/11/13 01:54:22;;;;;;;64.65;21.08;;;;;;;;;;6260273;22;20445;-94
2021/11/13 01:57:07;;;;;;;125.40;21.23;;;;;;;;;;6261275;22;20011;-93
2021/11/13 01:59:34;;;;;;;73.50;21.23;;;;;;;;;;6216013;22;20008;-93
2021/11/13 02:02:00;;;;;;;135.63;22.90;;;;;;;;;;6266229;22;20047;-91
2021/11/13 02:04:36;;;;;;;83.20;21.88;;;;;;;;;;6264327;22;20329;-90
2021/11/13 02:07:19;;;;;;;136.45;21.63;;;;;;;;;;6291153;22;20008;-91
2021/11/13 02:10:25;;;;;;;152.05;22.40;;;;;;;;;;6239387;22;20008;-95
2021/11/13 02:12:54;;;;;;;73.82;19.48;;;;;;;;;;6227592;22;20039;-94
2021/11/13 02:15:28;;;;;;;77.45;20.52;;;;;;;;;;6285351;22;20035;-92
2021/11/13 02:18:14;;;;;;;70.95;20.63;;;;;;;;;;6289989;22;20488;-95
2021/11/13 02:20:50;;;;;;;85.45;21.73;;;;;;;;;;6259885;22;20016;-93
2021/11/13 02:23:45;;;;;;;128.80;23.80;;;;;;;;;;6260250;22;20421;-93
2021/11/13 02:26:12;;;;;;;145.40;22.92;;;;;;;;;;6262052;22;20086;-90
2021/11/13 02:28:40;;;;;;;99.35;24.13;;;;;;;;;;6257978;22;20090;-94
2021/11/13 02:31:08;;;;;;;170.32;24.77;;;;;;;;;;6260139;22;20003;-89
2021/11/13 02:33:37;;;;;;;62.50;21.80;;;;;;;;;;6261610;22;20015;-94
2021/11/13 02:36:29;;;;;;;68.50;22.10;;;;;;;;;;6263159;22;20007;-94
2021/11/13 02:39:22;;;;;;;68.82;21.10;;;;;;;;;;6269836;22;20008;-95
2021/11/13 02:41:59;;;;;;;78.60;20.55;;;;;;;;;;6285580;22;20008;-93
2021/11/13 02:44:33;;;;;;;100.28;23.80;;;;;;;;;;6258786;22;20014;-91
2021/11/13 02:47:25;;;;;;;113.35;22.48;;;;;;;;;;6286065;22;20033;-93
2021/11/13 02:49:54;;;;;;;113.63;24.42;;;;;;;;;;6263406;22;20011;-90
2021/11/13 02:52:28;;;;;;;97.95;23.33;;;;;;;;;;6283463;22;20421;-92
2021/11/13 02:54:56;;;;;;;110.90;24.27;;;;;;;;;;6252332;22;20459;-91
2021/11/13 02:57:22;;;;;;;80.75;23.42;;;;;;;;;;6252999;22;20008;-88
2021/11/13 02:59:50;;;;;;;98.72;24.75;;;;;;;;;;6252425;22;20000;-91
2021/11/13 03:02:18;;;;;;;100.22;25.25;;;;;;;;;;6282060;22;20016;-92
2021/11/13 03:04:44;;;;;;;75.40;23.23;;;;;;;;;;6255044;22;20007;-91
2021/11/13 03:07:11;;;;;;;67.30;23.90;;;;;;;;;;6281628;22;20008;-90
2021/11/13 03:09:40;;;;;;;104.28;25.20;;;;;;;;;;6257909;22;20008;-91
2021/11/13 03:12:07;;;;;;;80.82;24.20;;;;;;;;;;6259648;22;20019;-91
2021/11/13 03:14:33;;;;;;;80.32;24.27;;;;;;;;;;6235419;22;20094;-90
2021/11/13 03:17:00;;;;;;;104.50;25.77;;;;;;;;;;6258325;22;20004;-93
2021/11/13 03:19:27;;;;;;;76.63;24.25;;;;;;;;;;6258352;22;20004;-91
2021/11/13 03:21:54;;;;;;;69.78;24.23;;;;;;;;;;6258400;22;20057;-90
2021/11/13 03:24:22;;;;;;;64.70;23.77;;;;;;;;;;6284294;22;20347;-93
2021/11/13 03:26:49;;;;;;;74.25;25.27;;;;;;;;;;6231920;22;20015;-94
2021/11/13 03:29:17;;;;;;;70.55;24.63;;;;;;;;;;6257113;22;20004;-94
2021/11/13 03:31:51;;;;;;;60.28;23.45;;;;;;;;;;6285383;22;20061;-96
2021/11/13 03:34:18;;;;;;;52.10;23.10;;;;;;;;;;6258197;22;20027;-94
2021/11/13 03:36:54;;;;;;;59.97;22.48;;;;;;;;;;6259878;22;20004;-93
2021/11/13 03:39:23;;;;;;;55.35;22.63;;;;;;;;;;6262539;22;20063;-92
2021/11/13 03:41:51;;;;;;;68.93;25.70;;;;;;;;;;6289739;22;20007;-93
2021/11/13 03:44:25;;;;;;;56.42;23.08;;;;;;;;;;6294677;22;20007;-91
2021/11/13 03:46:53;;;;;;;53.30;22.52;;;;;;;;;;6280585;22;19999;-90
2021/11/13 03:49:21;;;;;;;54.58;24.05;;;;;;;;;;6279822;22;20002;-93
2021/11/13 03:51:49;;;;;;;53.63;20.90;;;;;;;;;;6290454;22;20000;-92
2021/11/13 03:54:15;;;;;;;49.13;21.50;;;;;;;;;;6265856;22;20030;-94
2021/11/13 03:56:41;;;;;;;55.70;22.05;;;;;;;;;;6259941;22;20008;-91
2021/11/13 03:59:30;;;;;;;53.65;22.38;;;;;;;;;;6290020;22;20095;-95
2021/11/13 04:02:16;;;;;;;44.70;19.52;;;;;;;;;;6289976;22;20022;-94
2021/11/13 04:05:03;;;;;;;54.25;22.40;;;;;;;;;;6263984;22;20008;-94
2021/11/13 04:07:39;;;;;;;55.08;21.90;;;;;;;;;;6263463;22;20003;-94
2021/11/13 04:10:07;;;;;;;51.03;22.25;;;;;;;;;;6288678;22;20011;-93
2021/11/13 04:12:34;;;;;;;48.15;21.35;;;;;;;;;;6262309;22;20041;-94
2021/11/13 04:15:03;;;;;;;53.63;21.60;;;;;;;;;;6262829;22;20004;-94
2021/11/13 04:17:32;;;;;;;49.10;20.73;;;;;;;;;;6264117;22;19999;-95
2021/11/13 04:19:59;;;;;;;54.13;20.60;;;;;;;;;;6263735;22;20038;-94
2021/11/13 04:23:02;;;;;;;49.25;20.85;;;;;;;;;;6266792;22;20065;-94
2021/11/13 04:26:06;;;;;;;39.38;18.73;;;;;;;;;;6293258;22;20004;-89
2021/11/13 04:28:51;;;;;;;49.33;20.75;;;;;;;;;;6289803;22;20008;-93
2021/11/13 04:31:20;;;;;;;46.08;21.00;;;;;;;;;;6268190;22;20030;-95
2021/11/13 04:33:47;;;;;;;42.38;19.48;;;;;;;;;;6293779;22;20000;-93
2021/11/13 04:36:37;;;;;;;51.13;21.60;;;;;;;;;;6270328;22;20020;-94
2021/11/13 04:39:29;;;;;;;50.15;20.42;;;;;;;;;;6292600;22;20011;-94
2021/11/13 04:41:56;;;;;;;51.28;22.15;;;;;;;;;;6266157;22;20120;-94
2021/11/13 04:44:23;;;;;;;49.70;20.48;;;;;;;;;;6287129;22;20008;-91
2021/11/13 04:46:49;;;;;;;44.17;21.23;;;;;;;;;;6260850;22;19999;-91
2021/11/13 04:49:18;;;;;;;54.35;22.38;;;;;;;;;;6259939;22;20007;-93
2021/11/13 04:54:49;;;;;;;52.47;18.63;;;;;;;;;;6296156;22;20030;-89
2021/11/13 04:57:16;;;;;;;46.83;20.80;;;;;;;;;;6265218;22;20241;-88
2021/11/13 05:00:00;;;;;;;53.22;22.08;;;;;;;;;;6268137;22;20035;-89
2021/11/13 05:03:01;;;;;;;55.63;22.23;;;;;;;;;;6288726;22;20020;-90
2021/11/13 05:05:32;;;;;;;55.90;20.88;;;;;;;;;;6270323;22;19999;-88
2021/11/13 05:08:30;;;;;;;53.45;20.38;;;;;;;;;;6301721;22;20010;-91
2021/11/13 05:11:19;;;;;;;41.40;19.42;;;;;;;;;;6277004;22;19992;-89
2021/11/13 05:13:46;;;;;;;54.28;19.63;;;;;;;;;;6269555;22;20014;-89
2021/11/13 05:16:12;;;;;;;55.03;19.95;;;;;;;;;;6265126;22;20004;-90
2021/11/13 05:19:09;;;;;;;44.30;16.98;;;;;;;;;;6271779;22;20010;-87
2021/11/13 05:21:58;;;;;;;49.00;17.35;;;;;;;;;;6302352;22;20059;-95
2021/11/13 05:24:53;;;;;;;43.90;17.23;;;;;;;;;;6277407;22;20008;-91
2021/11/13 05:28:00;;;;;;;45.42;16.85;;;;;;;;;;6299844;22;19992;-96
2021/11/13 05:36:41;;;;;;;43.22;16.83;;;;;;;;;;6293034;22;20098;-89
2021/11/13 05:39:41;;;;;;;42.20;14.88;;;;;;;;;;6303526;22;20015;-89
2021/11/13 05:42:52;;;;;;;35.08;14.60;;;;;;;;;;6303042;22;20000;-91
2021/11/13 05:45:30;;;;;;;47.58;14.32;;;;;;;;;;6295780;22;20012;-87
2021/11/13 05:48:21;;;;;;;41.38;15.73;;;;;;;;;;6270628;22;20005;-88
2021/11/13 05:50:53;;;;;;;43.88;14.43;;;;;;;;;;6300145;22;19999;-92
2021/11/13 05:53:37;;;;;;;46.78;14.20;;;;;;;;;;6274435;22;20071;-85
2021/11/13 05:56:15;;;;;;;39.75;14.73;;;;;;;;;;6268323;22;20023;-87
2021/11/13 05:58:48;;;;;;;43.50;15.68;;;;;;;;;;6247861;23;20038;-87
2021/11/13 06:01:46;;;;;;;43.17;12.68;;;;;;;;;;6291096;22;20020;-86
2021/11/13 06:04:51;;;;;;;41.40;13.27;;;;;;;;;;6305837;22;20021;-88
2021/11/13 06:08:07;;;;;;;47.03;14.00;;;;;;;;;;6306170;22;20072;-86
2021/11/13 06:10:40;;;;;;;41.00;13.98;;;;;;;;;;6277574;22;19992;-86
2021/11/13 06:13:35;;;;;;;41.10;13.93;;;;;;;;;;6279399;22;20017;-88
2021/11/13 06:16:17;;;;;;;42.55;13.88;;;;;;;;;;6279375;22;20276;-87
2021/11/13 06:18:49;;;;;;;43.38;14.18;;;;;;;;;;6304466;22;20008;-88
2021/11/13 06:21:57;;;;;;;39.25;14.48;;;;;;;;;;6306239;22;20008;-86
2021/11/13 06:24:43;;;;;;;42.15;13.95;;;;;;;;;;6273752;22;19988;-88
2021/11/13 06:27:23;;;;;;;45.38;14.57;;;;;;;;;;6307511;22;20071;-86
2021/11/13 06:30:35;;;;;;;34.38;11.98;;;;;;;;;;6304646;22;20004;-85
2021/11/13 06:33:56;;;;;;;43.38;14.00;;;;;;;;;;6302167;22;20019;-89
2021/11/13 06:36:50;;;;;;;36.63;12.50;;;;;;;;;;6279307;22;19996;-92
2021/11/13 06:39:30;;;;;;;36.95;13.50;;;;;;;;;;6277001;22;20004;-85
2021/11/13 06:42:22;;;;;;;49.78;13.20;;;;;;;;;;6285909;22;19996;-86
2021/11/13 06:48:02;;;;;;;45.13;13.77;;;;;;;;;;6303734;22;20034;-86
2021/11/13 06:50:52;;;;;;;44.45;13.18;;;;;;;;;;6304266;22;20016;-86
2021/11/13 06:53:45;;;;;;;55.33;15.95;;;;;;;;;;6278528;22;20016;-85
2021/11/13 06:56:28;;;;;;;60.13;16.20;;;;;;;;;;6281442;22;20004;-87
2021/11/13 06:59:16;;;;;;;40.35;14.43;;;;;;;;;;6293737;22;20034;-89
2021/11/13 07:01:43;;;;;;;49.03;16.40;;;;;;;;;;6273560;22;20008;-92
2021/11/13 07:13:15;;;;;;;77.60;22.42;;;;;;;;;;6292796;22;20003;-88
2021/11/13 07:15:45;;;;;;;61.40;17.77;;;;;;;;;;6303532;22;20056;-87
2021/11/13 07:18:11;;;;;;;58.05;16.77;;;;;;;;;;6278007;22;20071;-90
2021/11/13 07:20:37;;;;;;;53.42;16.38;;;;;;;;;;6280018;22;20008;-88
2021/11/13 07:23:45;;;;;;;53.28;16.67;;;;;;;;;;6306852;22;19996;-88
2021/11/13 07:26:56;;;;;;;54.10;16.98;;;;;;;;;;6263723;22;20001;-86
2021/11/13 07:29:46;;;;;;;57.50;16.10;;;;;;;;;;6285103;22;19991;-88
2021/11/13 07:32:35;;;;;;;50.47;15.43;;;;;;;;;;6279325;22;20023;-94
2021/11/13 07:38:01;;;;;;;53.95;16.55;;;;;;;;;;6262872;22;20035;-91
2021/11/13 07:40:28;;;;;;;47.45;15.90;;;;;;;;;;6287303;22;20020;-93
2021/11/13 07:42:54;;;;;;;60.47;17.90;;;;;;;;;;6275400;22;19992;-92
2021/11/13 07:45:21;;;;;;;59.75;17.80;;;;;;;;;;6273758;22;20009;-96
2021/11/13 07:47:48;;;;;;;52.22;17.02;;;;;;;;;;6269715;22;20027;-92
2021/11/13 07:50:25;;;;;;;56.75;17.30;;;;;;;;;;6275893;22;19996;-93
2021/11/13 07:52:54;;;;;;;49.70;15.45;;;;;;;;;;6275355;22;20072;-92
2021/11/13 07:55:20;;;;;;;45.80;14.73;;;;;;;;;;6275084;22;20008;-95
2021/11/13 07:57:50;;;;;;;64.85;17.27;;;;;;;;;;6244541;23;20009;-94
2021/11/13 08:00:20;;;;;;;62.05;18.08;;;;;;;;;;6235793;23;20027;-93
2021/11/13 08:02:54;;;;;;;48.58;15.65;;;;;;;;;;6263459;22;20008;-93
2021/11/13 08:05:21;;;;;;;61.85;18.10;;;;;;;;;;6235219;23;20004;-93
2021/11/13 08:07:56;;;;;;;56.22;16.20;;;;;;;;;;6259180;23;20004;-94
2021/11/13 08:10:23;;;;;;;52.05;16.30;;;;;;;;;;6265055;23;20031;-92
2021/11/13 08:12:49;;;;;;;49.55;15.32;;;;;;;;;;6266433;23;20046;-93
2021/11/13 08:17:49;;;;;;;58.50;16.38;;;;;;;;;;6268958;23;20023;-94
2021/11/13 08:23:28;;;;;;;63.25;16.85;;;;;;;;;;6280358;22;20008;-95
2021/11/13 08:28:51;;;;;;;38.38;12.25;;;;;;;;;;6274967;22;20023;-94
2021/11/13 08:32:13;;;;;;;36.92;11.95;;;;;;;;;;6272435;22;20008;-94
2021/11/13 08:35:19;;;;;;;42.72;13.63;;;;;;;;;;6245269;22;20007;-94
2021/11/13 08:38:28;;;;;;;45.47;13.02;;;;;;;;;;6270078;22;20043;-92
2021/11/13 08:41:18;;;;;;;40.97;13.18;;;;;;;;;;6245115;22;20000;-93
2021/11/13 08:49:25;;;;;;;42.97;12.65;;;;;;;;;;6255828;22;19996;-94
2021/11/13 08:52:46;;;;;;;41.10;12.60;;;;;;;;;;6245223;22;20004;-95
2021/11/13 08:58:38;;;;;;;42.83;12.68;;;;;;;;;;6270948;22;20044;-93
2021/11/13 09:02:03;;;;;;;36.92;11.38;;;;;;;;;;6152273;23;20005;-95
2021/11/13 09:15:56;;;;;;;36.63;10.85;;;;;;;;;;6285826;22;20030;-93
2021/11/13 09:18:51;;;;;;;32.10;11.63;;;;;;;;;;6242532;23;20012;-95
2021/11/13 09:22:13;;;;;;;34.80;10.88;;;;;;;;;;6234767;23;20017;-93
2021/11/13 09:31:14;;;;;;;30.30;10.52;;;;;;;;;;6303044;22;20073;-94
2021/11/13 09:34:20;;;;;;;28.70;10.35;;;;;;;;;;6303047;22;20015;-94
2021/11/13 09:37:15;;;;;;;30.48;11.57;;;;;;;;;;6274124;22;20011;-94
2021/11/13 09:40:33;;;;;;;30.63;10.50;;;;;;;;;;6294266;22;20008;-93
2021/11/13 09:43:22;;;;;;;28.15;10.02;;;;;;;;;;6183083;23;20028;-93
2021/11/13 09:46:39;;;;;;;27.90;11.18;;;;;;;;;;6181166;23;20021;-94
2021/11/13 09:52:56;;;;;;;29.50;10.70;;;;;;;;;;6273552;22;20000;-94
2021/11/13 09:55:32;;;;;;;33.08;11.23;;;;;;;;;;6272370;22;20016;-93
2021/11/13 09:57:58;;;;;;;33.20;10.60;;;;;;;;;;6262587;22;20015;-96
2021/11/13 10:00:31;;;;;;;32.00;11.88;;;;;;;;;;6256599;22;20004;-95
2021/11/13 10:12:45;;;;;;;36.47;11.40;;;;;;;;;;6199567;23;20023;-96
2021/11/13 10:19:11;;;;;;;29.40;11.95;;;;;;;;;;6283078;22;20031;-95
2021/11/13 10:22:09;;;;;;;27.33;11.15;;;;;;;;;;6177935;23;20001;-96
2021/11/13 10:25:30;;;;;;;40.35;13.23;;;;;;;;;;6167536;23;20017;-94
2021/11/13 10:29:02;;;;;;;35.38;13.10;;;;;;;;;;6159651;23;20001;-94
2021/11/13 10:32:25;;;;;;;28.88;12.00;;;;;;;;;;6063668;23;19995;-94
2021/11/13 10:40:50;;;;;;;40.22;12.88;;;;;;;;;;6277539;22;20028;-94
2021/11/13 10:43:19;;;;;;;39.85;14.43;;;;;;;;;;6262901;23;20020;-94
2021/11/13 10:46:04;;;;;;;35.90;12.88;;;;;;;;;;6238534;22;20003;-95
2021/11/13 10:49:12;;;;;;;33.65;12.80;;;;;;;;;;6248600;23;20008;-95
2021/11/13 10:52:09;;;;;;;40.90;12.65;;;;;;;;;;6230801;23;20039;-96
2021/11/13 10:54:45;;;;;;;40.67;14.05;;;;;;;;;;6233976;23;20065;-95
2021/11/13 11:00:15;;;;;;;44.95;15.57;;;;;;;;;;6259324;22;20019;-93
2021/11/13 11:02:44;;;;;;;45.45;16.27;;;;;;;;;;6261022;22;20019;-92
2021/11/13 11:11:47;;;;;;;38.63;14.93;;;;;;;;;;6279180;22;20038;-95
2021/11/13 11:22:43;;;;;;;32.38;12.80;;;;;;;;;;6305868;22;20010;-94
2021/11/13 11:25:33;;;;;;;34.38;12.45;;;;;;;;;;6301538;22;20019;-94
2021/11/13 11:28:11;;;;;;;38.00;12.55;;;;;;;;;;6247210;22;20023;-93
2021/11/13 11:31:03;;;;;;;31.00;12.25;;;;;;;;;;6273220;22;20012;-93
2021/11/13 11:33:48;;;;;;;28.67;11.90;;;;;;;;;;6244416;22;19996;-93
2021/11/13 11:36:34;;;;;;;29.65;12.35;;;;;;;;;;6273810;22;20012;-94
2021/11/13 11:41:41;;;;;;;37.15;12.10;;;;;;;;;;6298663;22;20024;-93
2021/11/13 11:47:48;;;;;;;34.00;11.20;;;;;;;;;;6275520;22;20034;-92
2021/11/13 11:50:16;;;;;;;31.60;13.02;;;;;;;;;;6246506;22;20012;-92
2021/11/13 11:53:24;;;;;;;36.33;13.15;;;;;;;;;;6272365;22;20004;-93
2021/11/13 11:56:47;;;;;;;29.65;11.30;;;;;;;;;;6269363;22;20013;-94
2021/11/13 11:59:58;;;;;;;38.55;12.32;;;;;;;;;;6270342;22;20023;-93
2021/11/13 12:02:58;;;;;;;31.08;11.27;;;;;;;;;;6305128;22;20003;-93
2021/11/13 12:08:46;;;;;;;33.47;11.43;;;;;;;;;;6289064;22;20910;31
2021/11/13 12:38:46;;;;;;;33.90;12.82;;;;;;;;;;6287948;22;20030;-96
2021/11/13 12:41:44;;;;;;;40.45;12.65;;;;;;;;;;6305077;22;20007;-96
2021/11/13 13:26:36;;;;;;;32.22;12.65;;;;;;;;;;6318921;22;20049;-90
2021/11/13 13:29:33;;;;;;;30.65;11.98;;;;;;;;;;6201970;23;20013;-87
2021/11/13 13:38:50;;;;;;;31.90;11.13;;;;;;;;;;6287491;22;20058;-89
2021/11/13 13:51:39;;;;;;;28.00;12.05;;;;;;;;;;6276408;22;20020;-95
2021/11/13 13:54:19;;;;;;;34.28;13.93;;;;;;;;;;6232642;23;20027;-95
2021/11/13 13:57:18;;;;;;;32.30;13.30;;;;;;;;;;6234455;23;20004;-95
2021/11/13 13:59:47;;;;;;;29.17;13.20;;;;;;;;;;6172817;23;20335;-94
2021/11/13 14:02:32;;;;;;;;;;;;;;;;;;;;;
2021/11/13 14:08:29;;;;;;;28.92;11.70;;;;;;;;;;6113406;23;20018;-94
2021/11/13 14:11:32;;;;;;;35.63;12.35;;;;;;;;;;6108083;23;20010;-96
2021/11/13 14:14:21;;;;;;;28.30;12.52;;;;;;;;;;6071202;23;20021;-96
2021/11/13 14:16:47;;;;;;;28.98;12.57;;;;;;;;;;6125602;23;20005;-93
2021/11/13 14:22:21;;;;;;;28.60;12.95;;;;;;;;;;6100771;23;20096;-95
2021/11/13 14:27:23;;;;;;;34.70;13.07;;;;;;;;;;6274737;22;20020;-94
2021/11/13 14:30:16;;;;;;;30.25;12.10;;;;;;;;;;6250257;23;20536;-94
2021/11/13 14:33:01;;;;;;;27.58;12.82;;;;;;;;;;6262497;23;20016;-92
2021/11/13 14:35:28;;;;;;;28.10;11.75;;;;;;;;;;6254516;23;20091;-94
2021/11/13 14:49:22;;;;;;;27.95;11.63;;;;;;;;;;6240941;22;20027;-93
2021/11/13 15:16:21;;;;;;;28.73;12.40;;;;;;;;;;6172055;22;20040;-93
2021/11/13 16:39:25;;;;;;;39.55;16.38;;;;;;;;;;6253843;22;20059;-93
2021/11/13 16:55:00;;;;;;;34.22;14.18;;;;;;;;;;6253563;22;20031;-92
2021/11/13 17:00:32;;;;;;;35.30;13.82;;;;;;;;;;6270419;22;20043;-91
2021/11/13 17:03:02;;;;;;;41.13;15.32;;;;;;;;;;6265255;23;20460;-92
2021/11/13 17:08:53;;;;;;;39.95;13.95;;;;;;;;;;6297093;22;20034;-92
2021/11/13 17:34:18;;;;;;;36.67;13.73;;;;;;;;;;6301424;22;20050;-90
2021/11/13 17:37:36;;;;;;;31.35;13.20;;;;;;;;;;6296536;22;20057;-91
2021/11/13 17:43:18;;;;;;;34.58;14.45;;;;;;;;;;6298474;22;20064;-91
2021/11/13 17:51:53;;;;;;;38.83;15.68;;;;;;;;;;6271986;22;20003;-92
2021/11/13 17:58:00;;;;;;;41.70;14.82;;;;;;;;;;6252703;22;20030;-91
2021/11/13 18:03:00;;;;;;;46.88;15.35;;;;;;;;;;6285300;22;20019;-91
2021/11/13 18:08:00;;;;;;;42.00;15.93;;;;;;;;;;6270059;22;20067;-91
2021/11/13 18:10:37;;;;;;;34.45;14.38;;;;;;;;;;6262117;23;20004;-91
2021/11/13 18:16:03;;;;;;;42.47;14.77;;;;;;;;;;6232257;22;20011;-90
2021/11/13 18:21:48;;;;;;;41.97;15.18;;;;;;;;;;6327432;22;20467;-91
2021/11/13 19:06:25;;;;;;;36.00;14.43;;;;;;;;;;6246950;22;21099;-92
2021/11/13 19:09:19;;;;;;;36.92;14.18;;;;;;;;;;6219312;23;20016;-93
2021/11/13 19:30:49;;;;;;;45.58;17.00;;;;;;;;;;6171897;23;19996;-92
2021/11/13 19:33:37;;;;;;;44.40;16.65;;;;;;;;;;6174403;23;20078;-93
2021/11/13 19:48:18;;;;;;;46.92;16.65;;;;;;;;;;6297970;22;20062;-92
2021/11/13 20:00:13;;;;;;;41.53;16.73;;;;;;;;;;6299199;22;20012;-93
2021/11/13 20:02:49;;;;;;;46.38;18.23;;;;;;;;;;6277082;22;20012;-92
2021/11/13 20:05:39;;;;;;;43.55;17.73;;;;;;;;;;6272556;22;20003;-93
2021/11/13 20:08:06;;;;;;;42.35;16.38;;;;;;;;;;6292606;22;20004;-91
2021/11/13 20:10:33;;;;;;;42.35;16.98;;;;;;;;;;6253040;22;20004;-91
2021/11/13 20:13:01;;;;;;;51.72;18.10;;;;;;;;;;6251610;22;20015;-91
2021/11/13 20:15:27;;;;;;;44.92;17.48;;;;;;;;;;6251683;22;19999;-91
2021/11/13 20:17:55;;;;;;;45.10;16.13;;;;;;;;;;6253402;22;20432;-91
2021/11/13 20:20:22;;;;;;;48.97;17.90;;;;;;;;;;6257117;22;20011;-91
2021/11/13 20:22:48;;;;;;;52.58;19.08;;;;;;;;;;6256309;22;20008;-91
2021/11/13 20:25:14;;;;;;;49.38;18.52;;;;;;;;;;6260524;22;20004;-91
2021/11/13 20:27:41;;;;;;;54.28;19.30;;;;;;;;;;6253590;22;20011;-91
2021/11/13 20:30:08;;;;;;;53.80;18.27;;;;;;;;;;6254129;22;20010;-87
2021/11/13 20:32:36;;;;;;;56.38;17.50;;;;;;;;;;6256399;22;20012;-92
2021/11/13 20:35:03;;;;;;;48.28;17.27;;;;;;;;;;6252868;22;20038;-91
2021/11/13 20:37:29;;;;;;;48.03;15.88;;;;;;;;;;6253319;22;20078;-92
2021/11/13 20:40:04;;;;;;;42.58;16.95;;;;;;;;;;6253744;22;20004;-93
2021/11/13 20:42:33;;;;;;;45.65;16.13;;;;;;;;;;6254081;22;20057;-93
2021/11/13 20:45:01;;;;;;;60.30;17.52;;;;;;;;;;6254184;22;20086;-89
2021/11/13 20:47:27;;;;;;;57.80;18.63;;;;;;;;;;6269060;22;20010;-86
2021/11/13 20:49:54;;;;;;;54.33;18.50;;;;;;;;;;6276158;22;19995;-91
2021/11/13 20:52:21;;;;;;;44.38;16.05;;;;;;;;;;6257358;22;20000;-89
2021/11/13 20:54:48;;;;;;;48.72;18.17;;;;;;;;;;6254711;22;20325;-91
2021/11/13 20:57:14;;;;;;;55.92;18.00;;;;;;;;;;6253063;22;20435;-91
2021/11/13 20:59:41;;;;;;;56.35;16.65;;;;;;;;;;6246997;23;20016;-90
2021/11/13 21:02:08;;;;;;;52.97;17.10;;;;;;;;;;6247628;23;20317;-90
2021/11/13 21:04:35;;;;;;;83.50;18.05;;;;;;;;;;6246967;23;20441;-90
2021/11/13 21:07:02;;;;;;;44.67;17.65;;;;;;;;;;6247399;23;20075;-90
2021/11/13 21:09:29;;;;;;;46.78;17.75;;;;;;;;;;6247549;23;20468;-89
2021/11/13 21:11:55;;;;;;;53.67;18.00;;;;;;;;;;6247279;23;20486;-91
2021/11/13 21:14:22;;;;;;;48.90;16.15;;;;;;;;;;6247064;23;20065;-90
2021/11/13 21:16:50;;;;;;;49.80;16.63;;;;;;;;;;6247681;23;20000;-90
2021/11/13 21:19:18;;;;;;;43.47;16.08;;;;;;;;;;6246977;23;20062;-91
2021/11/13 21:21:44;;;;;;;50.10;16.58;;;;;;;;;;6247298;23;20083;-91
2021/11/13 21:24:10;;;;;;;36.58;16.25;;;;;;;;;;6247416;23;20004;-91
2021/11/13 21:26:36;;;;;;;43.38;15.32;;;;;;;;;;6247117;23;20008;-90
2021/11/13 21:29:04;;;;;;;42.60;15.85;;;;;;;;;;6247595;23;20410;-90
2021/11/13 21:31:31;;;;;;;44.22;15.20;;;;;;;;;;6247140;23;20028;-91
2021/11/13 21:33:57;;;;;;;47.20;15.65;;;;;;;;;;6246733;23;20019;-90
2021/11/13 21:36:23;;;;;;;42.40;17.20;;;;;;;;;;6247195;23;20031;-90
2021/11/13 21:38:49;;;;;;;43.20;17.00;;;;;;;;;;6247046;23;20088;-91
2021/11/13 21:41:16;;;;;;;47.67;16.23;;;;;;;;;;6247435;23;20406;-92
2021/11/13 21:43:44;;;;;;;53.70;18.23;;;;;;;;;;6246811;23;20298;-91
2021/11/13 21:46:10;;;;;;;70.95;19.58;;;;;;;;;;6247002;23;20008;-90
2021/11/13 21:48:36;;;;;;;56.13;16.67;;;;;;;;;;6246578;23;20000;-89
2021/11/13 21:51:03;;;;;;;53.30;17.35;;;;;;;;;;6246555;23;20006;-89
2021/11/13 21:53:29;;;;;;;60.10;18.45;;;;;;;;;;6247384;23;20012;-90
2021/11/13 21:55:55;;;;;;;58.58;19.48;;;;;;;;;;6246735;23;20050;-90
2021/11/13 21:58:23;;;;;;;45.15;16.85;;;;;;;;;;6246881;23;20098;-92
2021/11/13 22:00:49;;;;;;;45.95;17.35;;;;;;;;;;6247105;23;20000;-91
2021/11/13 22:03:19;;;;;;;56.08;19.45;;;;;;;;;;6247210;23;20004;-93
2021/11/13 22:05:45;;;;;;;57.55;19.08;;;;;;;;;;6247608;23;20035;-91
2021/11/13 22:08:11;;;;;;;91.72;20.45;;;;;;;;;;6246881;23;20031;-90
2021/11/13 22:10:39;;;;;;;73.90;18.17;;;;;;;;;;6247386;23;20007;-93
2021/11/13 22:13:06;;;;;;;62.55;16.50;;;;;;;;;;6247725;23;20038;-92
2021/11/13 22:15:32;;;;;;;52.13;18.27;;;;;;;;;;6246745;23;20360;-94
2021/11/13 22:17:59;;;;;;;57.55;16.75;;;;;;;;;;6247881;23;20004;-90
2021/11/13 22:20:26;;;;;;;59.58;17.02;;;;;;;;;;6247236;23;20083;-92
2021/11/13 22:22:53;;;;;;;62.47;17.10;;;;;;;;;;6248507;23;20031;-91
2021/11/13 22:25:20;;;;;;;63.47;17.65;;;;;;;;;;6247008;23;20024;-94
2021/11/13 22:27:47;;;;;;;66.93;17.63;;;;;;;;;;6247081;23;20027;-94
2021/11/13 22:30:16;;;;;;;45.95;16.60;;;;;;;;;;6247160;23;20027;-92
2021/11/13 22:32:42;;;;;;;66.28;17.75;;;;;;;;;;6247305;23;20020;-91
2021/11/13 22:35:10;;;;;;;52.05;16.48;;;;;;;;;;6246587;23;20000;-90
2021/11/13 22:37:36;;;;;;;58.88;16.58;;;;;;;;;;6247034;23;20008;-92
2021/11/13 22:40:03;;;;;;;63.08;16.20;;;;;;;;;;6246666;23;20019;-92
2021/11/13 22:42:29;;;;;;;60.05;16.13;;;;;;;;;;6246569;23;20004;-91
2021/11/13 22:44:56;;;;;;;61.08;15.93;;;;;;;;;;6246130;23;20008;-92
2021/11/13 22:47:22;;;;;;;75.15;18.08;;;;;;;;;;6246123;23;20004;-93
2021/11/13 22:49:49;;;;;;;81.97;16.90;;;;;;;;;;6248018;23;20421;-93
2021/11/13 22:52:16;;;;;;;71.38;18.13;;;;;;;;;;6246744;23;20004;-93
2021/11/13 22:54:43;;;;;;;74.88;19.88;;;;;;;;;;6248343;23;20008;-92
2021/11/13 22:57:10;;;;;;;111.03;20.65;;;;;;;;;;6247725;23;20000;-92
2021/11/13 22:59:37;;;;;;;59.40;17.92;;;;;;;;;;6247099;23;20024;-94